Time;durP1;ratioP1;P1;durP2;ratioP2;P2;SDS_P1;SDS_P2;PMS_P1;PMS_P2;Temp;Humidity;BMP_temperature;BMP_pressure;BME280_temperature;BME280_humidity;BME280_pressure;Samples;Min_cycle;Max_cycle;Signal;HPM_P1;HPM_P2
2021/08/21 00:00:24;;;;;;;6.20;3.70;;;;;;;15.30;92.53;98985.56;5000588;28;20022;-68
2021/08/21 00:02:49;;;;;;;6.45;4.00;;;;;;;15.25;92.64;98973.69;5007469;28;20038;-70
2021/08/21 00:05:15;;;;;;;4.85;3.70;;;;;;;15.25;93.27;98977.25;5012952;28;20108;-68
2021/08/21 00:07:40;;;;;;;7.93;3.97;;;;;;;15.11;93.73;98975.72;5012718;28;20531;-68
2021/08/21 00:10:08;;;;;;;5.43;4.15;;;;;;;15.08;94.07;98974.28;5000400;28;20033;-68
2021/08/21 00:12:33;;;;;;;6.03;3.50;;;;;;;15.02;93.87;98986.13;4998698;28;20022;-68
2021/08/21 00:14:59;;;;;;;7.93;4.03;;;;;;;15.13;93.63;98977.16;5011764;28;20033;-67
2021/08/21 00:17:25;;;;;;;6.72;4.07;;;;;;;15.16;93.45;98980.50;5011474;28;20034;-68
2021/08/21 00:19:50;;;;;;;6.82;3.88;;;;;;;15.05;93.87;98982.09;5011135;28;20033;-68
2021/08/21 00:22:16;;;;;;;7.20;3.58;;;;;;;15.11;93.74;98976.56;5012957;28;20383;-68
2021/08/21 00:24:41;;;;;;;9.00;4.10;;;;;;;15.07;93.58;98972.63;4992790;28;20030;-68
2021/08/21 00:27:07;;;;;;;5.07;3.67;;;;;;;14.94;94.32;98980.16;5006923;28;20040;-68
2021/08/21 00:29:32;;;;;;;5.70;3.90;;;;;;;14.92;94.67;98980.34;5003665;28;20402;-67
2021/08/21 00:31:58;;;;;;;5.95;4.00;;;;;;;14.82;94.84;98971.88;5011764;28;20048;-68
2021/08/21 00:34:23;;;;;;;6.75;4.15;;;;;;;14.81;95.35;98971.06;5011794;28;20060;-68
2021/08/21 00:36:49;;;;;;;6.63;4.18;;;;;;;14.83;95.13;98979.84;5010530;28;20467;-68
2021/08/21 00:39:14;;;;;;;5.80;3.90;;;;;;;14.85;95.20;98976.88;5003905;28;20380;-68
2021/08/21 00:41:40;;;;;;;6.63;4.78;;;;;;;14.81;95.60;98979.22;4994360;28;20038;-68
2021/08/21 00:44:06;;;;;;;7.03;4.60;;;;;;;14.84;95.59;98975.22;5007882;28;20065;-68
2021/08/21 00:46:33;;;;;;;6.63;4.03;;;;;;;14.78;95.77;98974.22;5012555;28;20485;-68
2021/08/21 00:48:59;;;;;;;6.65;4.30;;;;;;;14.78;95.35;98976.97;5008365;28;20030;-66
2021/08/21 00:51:24;;;;;;;7.13;4.65;;;;;;;14.81;95.99;98975.69;5011451;28;20022;-68
2021/08/21 00:53:50;;;;;;;8.35;3.92;;;;;;;14.74;95.56;98977.63;5004708;28;20030;-68
2021/08/21 00:56:15;;;;;;;8.55;4.68;;;;;;;14.71;95.91;98959.84;4993290;28;20109;-67
2021/08/21 00:58:42;;;;;;;6.32;4.15;;;;;;;14.64;95.42;98965.34;4995189;28;20038;-68
2021/08/21 01:01:08;;;;;;;7.82;4.25;;;;;;;14.64;95.88;98964.53;5008283;28;20087;-67
2021/08/21 01:03:34;;;;;;;6.43;4.40;;;;;;;14.55;96.28;98958.56;5011919;28;20060;-68
2021/08/21 01:06:00;;;;;;;5.65;3.90;;;;;;;14.47;96.63;98959.66;5012358;28;20057;-68
2021/08/21 01:08:25;;;;;;;6.80;4.43;;;;;;;14.41;97.51;98965.16;5011632;28;20034;-68
2021/08/21 01:10:51;;;;;;;7.63;4.32;;;;;;;14.38;97.67;98958.28;5010028;28;20488;-68
2021/08/21 01:13:16;;;;;;;6.63;4.63;;;;;;;14.32;97.58;98961.06;4993521;28;20463;-67
2021/08/21 01:15:42;;;;;;;8.52;4.35;;;;;;;14.23;98.31;98958.63;5004139;28;20088;-67
2021/08/21 01:18:07;;;;;;;15.90;5.00;;;;;;;14.18;98.81;98961.19;5000868;28;20065;-68
2021/08/21 01:20:33;;;;;;;4.85;3.97;;;;;;;14.31;98.58;98951.25;5001363;28;20030;-68
2021/08/21 01:22:59;;;;;;;9.05;4.65;;;;;;;14.23;97.70;98958.63;5009550;28;20475;-68
2021/08/21 01:25:28;;;;;;;7.15;4.50;;;;;;;14.20;97.98;98964.53;5012214;28;20026;-68
2021/08/21 01:27:53;;;;;;;7.07;3.88;;;;;;;14.32;97.54;98966.50;5005254;28;20049;-67
2021/08/21 01:30:19;;;;;;;5.68;4.05;;;;;;;14.25;97.24;98961.09;5001245;28;20038;-68
2021/08/21 01:32:44;;;;;;;6.63;4.00;;;;;;;14.29;97.36;98956.06;5010743;28;20048;-68
2021/08/21 01:35:10;;;;;;;6.43;4.20;;;;;;;14.34;97.33;98945.34;5024971;28;20038;-68
2021/08/21 01:37:35;;;;;;;5.95;4.20;;;;;;;14.25;97.55;98951.06;5011690;28;20053;-67
2021/08/21 01:40:02;;;;;;;6.13;3.85;;;;;;;14.25;96.98;98951.06;5011618;28;20103;-67
2021/08/21 01:42:27;;;;;;;8.60;4.22;;;;;;;14.21;97.29;98947.13;5011464;28;20119;-68
2021/08/21 01:44:52;;;;;;;4.30;3.40;;;;;;;14.23;97.33;98953.19;5004223;28;20503;-67
2021/08/21 01:47:18;;;;;;;5.88;3.67;;;;;;;14.19;97.54;98948.41;4995448;28;20037;-67
2021/08/21 01:50:01;;;;;;;7.07;3.90;;;;;;;14.13;98.02;98958.28;5011750;28;20044;-67
2021/08/21 01:52:27;;;;;;;6.57;3.78;;;;;;;14.11;98.44;98949.50;5001079;28;20129;-68
2021/08/21 01:54:53;;;;;;;5.72;3.95;;;;;;;13.98;98.45;98945.00;5005515;28;20110;-67
2021/08/21 01:57:18;;;;;;;10.57;4.00;;;;;;;14.10;98.71;98945.13;5000631;28;20049;-68
2021/08/21 01:59:45;;;;;;;5.68;3.95;;;;;;;14.00;98.70;98936.66;5011288;28;20026;-68
2021/08/21 02:02:17;;;;;;;9.18;4.07;;;;;;;14.15;98.56;98939.03;5010769;28;20053;-68
2021/08/21 02:04:42;;;;;;;4.57;4.00;;;;;;;14.00;98.82;98936.66;5011171;28;20030;-67
2021/08/21 02:07:08;;;;;;;5.70;4.00;;;;;;;13.95;98.96;98950.06;5000405;28;20037;-68
2021/08/21 02:09:34;;;;;;;7.38;3.97;;;;;;;13.86;99.49;98941.38;5013989;28;20038;-68
2021/08/21 02:12:02;;;;;;;6.82;3.58;;;;;;;13.85;100.00;98941.56;5008320;28;20037;-67
2021/08/21 02:14:27;;;;;;;4.80;3.13;;;;;;;13.82;100.00;98930.09;4996113;28;20037;-68
2021/08/21 02:16:57;;;;;;;7.68;3.80;;;;;;;13.80;100.00;98937.63;5014934;28;20018;-67
2021/08/21 02:19:23;;;;;;;5.72;3.65;;;;;;;13.81;100.00;98936.59;5012751;28;20040;-68
2021/08/21 02:21:50;;;;;;;5.55;3.28;;;;;;;13.78;99.89;98926.16;5008620;28;20029;-67
2021/08/21 02:24:16;;;;;;;5.35;3.08;;;;;;;13.82;100.00;98932.78;5014887;28;20029;-68
2021/08/21 02:26:46;;;;;;;6.65;3.08;;;;;;;13.81;99.91;98928.44;5014887;28;20018;-67
2021/08/21 02:29:12;;;;;;;4.32;3.38;;;;;;;13.99;99.79;98935.81;5014560;28;20051;-68
2021/08/21 02:31:39;;;;;;;3.47;2.75;;;;;;;13.97;99.52;98939.81;5011483;28;20025;-68
2021/08/21 02:34:05;;;;;;;5.90;2.90;;;;;;;13.96;99.74;98932.69;5005957;28;20084;-67
2021/08/21 02:36:31;;;;;;;7.32;2.92;;;;;;;13.94;99.42;98924.78;5013658;28;20545;-68
2021/08/21 02:38:57;;;;;;;8.13;3.20;;;;;;;13.89;99.71;98945.53;5014560;28;20033;-67
2021/08/21 02:41:22;;;;;;;8.30;3.28;;;;;;;13.93;99.95;98933.13;5012528;28;20041;-68
2021/08/21 02:43:48;;;;;;;4.30;3.50;;;;;;;13.84;100.00;98931.75;5013642;28;20072;-68
2021/08/21 02:46:13;;;;;;;4.93;3.63;;;;;;;13.76;100.00;98936.41;5014282;28;20029;-68
2021/08/21 02:48:38;;;;;;;5.95;3.88;;;;;;;13.78;100.00;98941.63;5010130;28;20029;-67
2021/08/21 02:51:04;;;;;;;7.90;3.78;;;;;;;13.78;98.86;98925.28;5014351;28;20026;-67
2021/08/21 02:53:30;;;;;;;5.57;3.40;;;;;;;13.80;97.89;98920.47;5013741;28;20038;-68
2021/08/21 02:55:56;;;;;;;6.53;3.88;;;;;;;13.81;97.90;98933.03;5013752;28;20388;-68
2021/08/21 02:58:21;;;;;;;5.70;3.67;;;;;;;13.77;97.97;98932.63;5014094;28;20029;-67
2021/08/21 03:00:46;;;;;;;6.63;3.25;;;;;;;13.73;97.92;98925.97;4996659;28;20030;-68
2021/08/21 03:03:12;;;;;;;8.77;3.40;;;;;;;13.63;98.62;98927.53;5008031;28;20092;-67
2021/08/21 03:05:38;;;;;;;5.78;3.60;;;;;;;13.67;99.27;98923.31;5013260;28;20028;-68
2021/08/21 03:08:04;;;;;;;6.00;4.30;;;;;;;13.48;99.54;98909.63;5013732;28;20065;-68
2021/08/21 03:10:29;;;;;;;5.45;3.78;;;;;;;13.50;99.98;98907.53;5013687;28;20384;-67
2021/08/21 03:12:55;;;;;;;6.20;3.78;;;;;;;13.53;100.00;98926.13;5007571;28;20145;-67
2021/08/21 03:15:20;;;;;;;7.93;3.95;;;;;;;13.48;100.00;98927.81;4994460;28;20034;-67
2021/08/21 03:17:46;;;;;;;6.22;4.22;;;;;;;13.38;100.00;98934.56;5012220;28;20072;-68
2021/08/21 03:20:12;;;;;;;8.30;4.35;;;;;;;13.43;100.00;98924.94;5013317;28;20030;-68
2021/08/21 03:22:37;;;;;;;7.68;4.10;;;;;;;13.33;100.00;98923.50;5012768;28;20048;-68
2021/08/21 03:25:03;;;;;;;7.35;4.32;;;;;;;13.23;100.00;98916.84;5012314;28;20029;-67
2021/08/21 03:27:28;;;;;;;9.43;4.38;;;;;;;13.32;100.00;98919.13;5013820;28;20021;-68
2021/08/21 03:29:53;;;;;;;5.82;3.60;;;;;;;13.34;100.00;98921.66;5009161;28;20476;-67
2021/08/21 03:32:19;;;;;;;6.45;4.18;;;;;;;13.29;100.00;98925.00;4999517;28;20441;-67
2021/08/21 03:34:44;;;;;;;6.32;4.13;;;;;;;13.39;100.00;98932.69;5000186;28;20018;-68
2021/08/21 03:37:11;;;;;;;7.70;3.92;;;;;;;13.47;100.00;98926.19;5012488;28;20570;-68
2021/08/21 03:39:37;;;;;;;5.07;3.60;;;;;;;13.48;100.00;98928.66;5013313;28;20073;-68
2021/08/21 03:42:03;;;;;;;6.03;3.58;;;;;;;13.60;100.00;98931.53;5013288;28;20029;-68
2021/08/21 03:44:29;;;;;;;7.35;3.55;;;;;;;13.68;99.41;98939.41;4998919;28;20034;-67
2021/08/21 03:46:54;;;;;;;6.40;3.63;;;;;;;13.64;99.04;98932.72;4978899;28;20028;-67
2021/08/21 03:49:19;;;;;;;6.95;3.40;;;;;;;13.62;99.18;98923.13;5013283;28;20038;-68
2021/08/21 03:51:45;;;;;;;5.68;3.15;;;;;;;13.58;99.36;98928.19;5013795;28;20049;-67
2021/08/21 03:54:10;;;;;;;5.38;3.53;;;;;;;13.55;99.51;98918.56;5001511;28;20192;-68
2021/08/21 03:56:35;;;;;;;5.95;3.60;;;;;;;13.65;99.73;98928.13;5009324;28;20129;-68
2021/08/21 03:59:01;;;;;;;6.28;3.47;;;;;;;13.60;99.82;98926.09;5011345;28;20485;-67
2021/08/21 04:01:26;;;;;;;4.93;3.53;;;;;;;13.55;99.38;98925.91;5013164;28;20456;-68
2021/08/21 04:03:51;;;;;;;8.43;3.90;;;;;;;13.54;99.43;98926.94;5008536;28;20552;-68
2021/08/21 04:06:19;;;;;;;6.40;3.88;;;;;;;13.59;98.90;98924.41;5011919;28;20034;-68
2021/08/21 04:08:44;;;;;;;6.30;3.75;;;;;;;13.56;98.96;98928.38;5007344;28;20030;-68
2021/08/21 04:11:09;;;;;;;5.53;3.30;;;;;;;13.66;98.87;98933.34;4999832;28;20091;-67
2021/08/21 04:13:34;;;;;;;7.35;4.22;;;;;;;13.65;97.59;98934.41;5012804;28;20392;-67
2021/08/21 04:16:00;;;;;;;6.88;3.85;;;;;;;13.68;98.01;98927.69;5002894;28;20480;-68
2021/08/21 04:18:25;;;;;;;6.68;3.58;;;;;;;13.66;97.64;98927.91;5012444;28;20026;-67
2021/08/21 04:20:50;;;;;;;7.43;4.15;;;;;;;13.64;98.26;98932.72;5012535;28;20372;-68
2021/08/21 04:23:15;;;;;;;4.85;3.40;;;;;;;13.64;98.66;98930.00;5005034;28;20033;-68
2021/08/21 04:25:41;;;;;;;5.28;3.67;;;;;;;13.68;99.17;98930.41;4997898;28;20092;-67
2021/08/21 04:28:06;;;;;;;6.15;3.55;;;;;;;13.79;99.51;98935.97;4993702;28;20037;-68
2021/08/21 04:30:32;;;;;;;9.23;3.40;;;;;;;13.81;99.31;98924.88;4993413;28;20042;-67
2021/08/21 04:32:57;;;;;;;7.15;3.38;;;;;;;13.93;99.17;98935.84;5004687;28;20037;-67
2021/08/21 04:35:22;;;;;;;5.90;3.10;;;;;;;14.00;98.71;98945.63;5000115;28;20057;-67
2021/08/21 04:37:48;;;;;;;4.70;3.28;;;;;;;14.09;97.80;98929.03;5003765;28;20125;-67
2021/08/21 04:40:14;;;;;;;6.30;2.97;;;;;;;14.13;97.28;98925.63;5011886;28;20487;-68
2021/08/21 04:42:39;;;;;;;5.55;3.33;;;;;;;14.25;96.83;98940.19;5012515;28;20026;-68
2021/08/21 04:45:06;;;;;;;3.60;3.00;;;;;;;14.36;96.43;98937.78;5011919;28;20030;-67
2021/08/21 04:47:31;;;;;;;6.88;3.33;;;;;;;14.42;95.95;98937.72;5006535;28;20029;-74
2021/08/21 04:49:58;;;;;;;6.85;3.58;;;;;;;14.49;93.57;98943.09;5004491;28;20030;-73
2021/08/21 04:52:23;;;;;;;5.00;3.20;;;;;;;14.51;93.52;98949.13;5003389;28;20480;-74
2021/08/21 04:54:49;;;;;;;4.43;2.95;;;;;;;14.59;93.89;98940.72;5010358;28;20036;-74
2021/08/21 04:57:16;;;;;;;3.85;2.75;;;;;;;14.75;93.65;98952.06;5002910;28;20216;-75
2021/08/21 04:59:41;;;;;;;4.35;2.60;;;;;;;14.80;92.83;98933.13;5010403;28;20034;-75
2021/08/21 05:02:06;;;;;;;6.13;3.10;;;;;;;14.91;92.47;98940.56;5002574;28;20037;-75
2021/08/21 05:04:32;;;;;;;5.40;3.13;;;;;;;14.99;92.12;98950.31;5009465;28;20021;-75
2021/08/21 05:06:57;;;;;;;4.20;3.10;;;;;;;15.09;91.96;98951.44;5005715;28;20196;-75
2021/08/21 05:09:22;;;;;;;7.55;3.10;;;;;;;15.17;90.90;98935.81;5011877;28;20080;-74
2021/08/21 05:11:48;;;;;;;5.60;2.90;;;;;;;15.37;89.57;98947.28;4997396;28;20080;-73
2021/08/21 05:14:13;;;;;;;5.07;3.05;;;;;;;15.55;88.40;98960.88;5006997;28;20128;-75
2021/08/21 05:16:42;;;;;;;6.68;3.20;;;;;;;15.67;87.59;98930.94;5012362;28;20105;-76
2021/08/21 05:19:12;;;;;;;5.38;3.08;;;;;;;15.77;86.74;98924.91;5105747;23;20407;-79
2021/08/21 05:21:47;;;;;;;5.70;2.85;;;;;;;15.87;85.08;98919.72;4995615;28;20030;-76
2021/08/21 05:24:13;;;;;;;4.95;2.90;;;;;;;16.21;83.83;98948.09;5011728;28;20044;-73
2021/08/21 05:26:39;;;;;;;6.63;3.40;;;;;;;16.26;83.62;98941.13;4996178;28;20116;-74
2021/08/21 05:29:05;;;;;;;5.28;3.20;;;;;;;16.35;82.49;98948.72;5007381;28;20087;-74
2021/08/21 05:31:31;;;;;;;5.55;3.05;;;;;;;16.36;81.41;98936.72;5013079;28;20030;-73
2021/08/21 05:33:56;;;;;;;6.93;3.28;;;;;;;16.28;81.79;98942.53;5012814;28;20534;-74
2021/08/21 05:36:21;;;;;;;5.50;3.13;;;;;;;16.53;80.80;98950.50;4995778;28;20060;-74
2021/08/21 05:38:47;;;;;;;6.18;2.92;;;;;;;16.51;80.86;98946.34;5008574;28;20025;-73
2021/08/21 05:41:12;;;;;;;6.25;3.03;;;;;;;16.77;80.66;98950.47;4998761;28;20451;-68
2021/08/21 05:43:37;;;;;;;4.20;2.70;;;;;;;17.01;80.19;98934.88;5015782;28;20021;-75
2021/08/21 05:46:03;;;;;;;3.13;2.38;;;;;;;17.25;79.92;98928.25;5011967;28;20026;-74
2021/08/21 05:48:28;;;;;;;3.55;2.40;;;;;;;17.47;79.20;98919.34;4991026;28;20200;-74
2021/08/21 05:50:53;;;;;;;3.38;2.58;;;;;;;17.73;78.31;98942.53;4982837;28;20026;-73
2021/08/21 05:53:19;;;;;;;8.38;2.67;;;;;;;17.80;78.39;98939.69;5007027;28;20472;-78
2021/08/21 05:55:44;;;;;;;6.85;3.13;;;;;;;17.86;77.22;98944.16;5006999;28;20085;-70
2021/08/21 05:58:09;;;;;;;6.65;2.45;;;;;;;18.03;76.89;98930.50;5008781;28;20068;-71
2021/08/21 06:00:35;;;;;;;4.47;2.30;;;;;;;18.27;76.67;98939.38;4997814;28;20028;-72
2021/08/21 06:03:00;;;;;;;8.50;2.42;;;;;;;19.12;73.98;98959.22;5009463;28;20026;-72
2021/08/21 06:05:25;;;;;;;6.90;2.85;;;;;;;19.90;70.04;98955.16;5012668;28;20033;-71
2021/08/21 06:07:51;;;;;;;4.75;2.30;;;;;;;21.07;64.76;98959.84;4997662;28;20029;-72
2021/08/21 06:10:16;;;;;;;4.47;2.30;;;;;;;22.12;60.97;98963.44;4984329;28;20026;-72
2021/08/21 06:12:41;;;;;;;4.03;2.15;;;;;;;22.95;58.52;98928.03;5010379;28;20392;-72
2021/08/21 06:15:07;;;;;;;5.72;2.67;;;;;;;23.31;57.74;98961.00;5015703;28;20057;-71
2021/08/21 06:17:32;;;;;;;3.42;2.30;;;;;;;23.10;57.99;98959.44;5015295;28;20037;-72
2021/08/21 06:19:58;;;;;;;3.90;2.58;;;;;;;22.50;57.89;98940.81;5015711;28;20033;-71
2021/08/21 06:22:24;;;;;;;3.72;2.53;;;;;;;22.07;58.15;98964.25;5010962;28;20033;-72
2021/08/21 06:24:50;;;;;;;4.10;2.42;;;;;;;22.22;59.59;98960.72;5005800;28;20533;-72
2021/08/21 06:27:15;;;;;;;3.40;2.50;;;;;;;21.84;59.00;98933.34;4997378;28;20022;-71
2021/08/21 06:29:40;;;;;;;5.32;2.45;;;;;;;21.83;60.92;98942.72;5013883;28;20403;-71
2021/08/21 06:32:06;;;;;;;3.47;2.58;;;;;;;21.86;61.20;98963.41;5014727;28;20026;-70
2021/08/21 06:34:33;;;;;;;5.68;2.53;;;;;;;22.26;59.93;98956.28;4996178;28;20057;-70
2021/08/21 06:36:59;;;;;;;6.53;2.38;;;;;;;22.50;59.89;98962.84;4996380;28;20392;-71
2021/08/21 06:39:25;;;;;;;6.28;2.60;;;;;;;22.70;59.40;98962.00;5004975;28;20033;-71
2021/08/21 06:41:50;;;;;;;3.25;2.38;;;;;;;23.65;55.44;98960.28;5012976;28;20033;-71
2021/08/21 06:44:15;;;;;;;3.75;2.50;;;;;;;24.22;53.68;98964.31;5012422;28;20024;-70
2021/08/21 06:46:41;;;;;;;4.50;2.25;;;;;;;24.69;52.57;98951.75;5013700;28;20531;-71
2021/08/21 06:49:06;;;;;;;6.95;2.88;;;;;;;24.70;53.15;98958.91;5013334;28;20101;-71
2021/08/21 06:51:31;;;;;;;4.03;2.28;;;;;;;24.91;52.68;98936.56;5013916;28;20053;-71
2021/08/21 06:53:56;;;;;;;5.68;2.58;;;;;;;24.76;51.01;98945.88;4995447;28;20037;-73
2021/08/21 06:56:22;;;;;;;3.38;2.47;;;;;;;25.20;51.08;98960.63;5012506;28;20565;-70
2021/08/21 06:58:47;;;;;;;3.97;2.55;;;;;;;26.33;48.09;98921.81;5012923;28;20523;-72
2021/08/21 07:01:13;;;;;;;4.32;2.33;;;;;;;26.14;47.39;98940.44;5013440;28;20140;-72
2021/08/21 07:03:38;;;;;;;3.28;2.30;;;;;;;26.26;47.51;98937.22;5006970;28;20037;-72
2021/08/21 07:06:03;;;;;;;4.50;2.30;;;;;;;25.70;47.68;98942.50;5011485;28;20458;-72
2021/08/21 07:08:29;;;;;;;4.88;2.65;;;;;;;25.57;48.65;98932.97;4995458;28;20036;-75
2021/08/21 07:10:54;;;;;;;3.85;2.63;;;;;;;25.64;47.94;98937.31;4983736;28;20158;-75
2021/08/21 07:13:20;;;;;;;4.10;2.38;;;;;;;25.13;49.38;98939.63;4985977;28;20030;-72
2021/08/21 07:15:45;;;;;;;2.75;2.15;;;;;;;25.09;49.61;98934.97;4992827;28;20018;-77
2021/08/21 07:18:11;;;;;;;4.47;2.40;;;;;;;25.02;50.11;98921.50;4996599;28;20476;-77
2021/08/21 07:20:36;;;;;;;3.47;2.20;;;;;;;24.97;50.26;98929.00;4970272;28;20026;-79
2021/08/21 07:23:01;;;;;;;5.53;1.95;;;;;;;25.51;49.61;98922.25;4986425;28;20027;-75
2021/08/21 07:25:27;;;;;;;5.40;2.33;;;;;;;27.20;46.62;98934.09;5012116;28;20546;-73
2021/08/21 07:27:52;;;;;;;7.22;2.47;;;;;;;28.95;42.37;98920.38;5004027;28;20369;-77
2021/08/21 07:30:17;;;;;;;3.08;2.00;;;;;;;30.39;40.08;98911.16;4987158;28;20539;-77
2021/08/21 07:32:43;;;;;;;4.22;2.20;;;;;;;30.72;39.08;98924.53;4999973;28;20018;-74
2021/08/21 07:35:08;;;;;;;3.45;1.88;;;;;;;31.54;38.30;98927.94;5001964;28;20026;-73
2021/08/21 07:37:36;;;;;;;4.53;2.13;;;;;;;32.25;36.10;98929.84;4988601;28;20459;-74
2021/08/21 07:40:02;;;;;;;4.95;2.00;;;;;;;31.92;36.69;98928.97;5006587;28;20025;-71
2021/08/21 07:42:27;;;;;;;3.40;1.83;;;;;;;30.60;38.02;98933.59;5009693;28;20030;-72
2021/08/21 07:44:53;;;;;;;3.58;2.00;;;;;;;29.96;39.42;98905.63;5004016;28;20087;-70
2021/08/21 07:47:18;;;;;;;5.85;1.67;;;;;;;29.87;40.34;98930.75;5000760;28;20025;-69
2021/08/21 07:49:45;;;;;;;3.67;2.10;;;;;;;30.24;39.92;98928.44;5005217;28;20034;-70
2021/08/21 07:52:10;;;;;;;2.88;2.17;;;;;;;31.75;37.21;98933.53;5010860;28;20088;-69
2021/08/21 07:54:35;;;;;;;9.20;2.20;;;;;;;32.03;36.15;98931.03;5004919;28;20632;-74
2021/08/21 07:57:00;;;;;;;6.05;2.20;;;;;;;33.14;34.57;98920.09;4987736;28;20430;-75
2021/08/21 07:59:26;;;;;;;5.28;1.83;;;;;;;33.56;34.04;98917.91;4985487;28;20108;-74
2021/08/21 08:01:51;;;;;;;3.22;1.95;;;;;;;33.28;34.65;98919.78;4996691;28;20041;-70
2021/08/21 08:04:16;;;;;;;3.90;2.20;;;;;;;33.64;32.98;98899.25;5007925;28;20085;-74
2021/08/21 08:06:42;;;;;;;3.25;1.70;;;;;;;34.17;33.43;98930.94;5008788;28;20088;-71
2021/08/21 08:09:07;;;;;;;2.63;1.92;;;;;;;34.95;31.82;98920.16;5004076;28;20117;-72
2021/08/21 08:11:32;;;;;;;4.95;1.88;;;;;;;35.47;31.08;98924.66;5010572;28;20073;-70
2021/08/21 08:13:58;;;;;;;6.40;1.65;;;;;;;35.20;31.42;98906.75;4997501;28;20396;-71
2021/08/21 08:16:23;;;;;;;2.90;1.80;;;;;;;35.30;31.17;98925.06;5011790;28;20025;-64
2021/08/21 08:18:48;;;;;;;4.75;2.00;;;;;;;34.02;32.64;98929.66;5010336;28;20032;-68
2021/08/21 08:21:18;;;;;;;2.92;1.83;;;;;;;34.02;32.91;98935.28;5002245;28;20029;-71
2021/08/21 08:23:43;;;;;;;2.92;1.90;;;;;;;32.17;34.72;98922.34;4998487;28;20034;-71
2021/08/21 08:26:08;;;;;;;4.90;2.10;;;;;;;34.79;31.39;98919.34;5000932;28;20025;-74
2021/08/21 08:28:34;;;;;;;2.33;1.50;;;;;;;34.37;30.89;98933.88;5000860;28;20472;-70
2021/08/21 08:30:59;;;;;;;2.00;1.77;;;;;;;35.21;30.29;98928.06;4997815;28;20033;-72
2021/08/21 08:33:24;;;;;;;5.97;1.90;;;;;;;34.96;30.15;98906.94;5002134;28;20657;-72
2021/08/21 08:35:51;;;;;;;2.25;1.60;;;;;;;36.32;27.58;98933.38;5003699;28;20033;-66
2021/08/21 08:38:18;;;;;;;4.55;2.55;;;;;;;36.54;27.76;98905.59;5010687;28;20503;-71
2021/08/21 08:40:44;;;;;;;5.68;1.80;;;;;;;36.56;27.03;98931.44;5012134;28;20017;-70
2021/08/21 08:43:09;;;;;;;2.70;1.95;;;;;;;36.11;27.98;98910.41;4994032;28;20121;-74
2021/08/21 08:45:35;;;;;;;2.85;1.70;;;;;;;36.15;28.30;98919.72;4994213;28;20122;-73
2021/08/21 08:48:01;;;;;;;3.30;2.10;;;;;;;36.16;27.54;98912.94;5011666;28;20456;-74
2021/08/21 08:50:28;;;;;;;2.40;1.88;;;;;;;35.16;29.20;98919.09;4996257;28;20373;-74
2021/08/21 08:52:54;;;;;;;4.57;1.90;;;;;;;35.45;28.98;98918.59;5008106;28;20022;-72
2021/08/21 08:55:21;;;;;;;4.50;2.20;;;;;;;36.28;27.83;98914.75;5010015;28;20022;-74
2021/08/21 08:57:47;;;;;;;3.35;1.98;;;;;;;35.78;28.31;98917.34;5009016;28;20110;-75
2021/08/21 09:00:14;;;;;;;2.90;1.80;;;;;;;37.16;26.53;98923.22;5004585;28;20175;-68
2021/08/21 09:02:42;;;;;;;3.03;2.00;;;;;;;36.18;27.77;98910.53;5005966;28;20041;-71
2021/08/21 09:05:09;;;;;;;3.33;2.23;;;;;;;36.38;28.15;98914.97;5009301;28;20034;-71
2021/08/21 09:07:51;;;;;;;2.43;2.00;;;;;;;35.96;28.22;98914.91;5001156;28;20038;-71
2021/08/21 09:10:20;;;;;;;3.92;2.05;;;;;;;36.37;27.98;98921.78;4992490;28;20275;-71
2021/08/21 09:12:48;;;;;;;3.50;2.05;;;;;;;36.96;26.86;98916.81;4995064;28;20030;-74
2021/08/21 09:15:23;;;;;;;2.80;1.90;;;;;;;36.91;27.40;98921.97;4997810;28;20037;-71
2021/08/21 09:18:21;;;;;;;3.75;1.90;;;;;;;37.19;27.01;98916.81;5010010;28;20284;-71
2021/08/21 09:20:47;;;;;;;3.03;2.20;;;;;;;36.43;28.17;98928.75;4992565;28;20479;-71
2021/08/21 09:23:26;;;;;;;3.20;2.00;;;;;;;37.61;27.00;98918.69;5014634;28;20120;-71
2021/08/21 09:26:03;;;;;;;4.82;2.03;;;;;;;37.29;27.74;98921.00;5014176;28;20034;-71
2021/08/21 09:28:28;;;;;;;7.88;2.42;;;;;;;37.49;26.92;98908.41;5012733;28;20033;-71
2021/08/21 09:31:08;;;;;;;3.50;2.28;;;;;;;35.45;29.65;98915.78;5014860;28;20033;-71
2021/08/21 09:33:39;;;;;;;2.58;2.17;;;;;;;35.94;29.05;98920.88;4997119;28;20083;-71
2021/08/21 09:36:05;;;;;;;2.42;2.00;;;;;;;36.14;29.05;98926.56;5012126;28;20026;-71
2021/08/21 09:38:32;;;;;;;4.85;2.42;;;;;;;36.46;28.71;98920.72;5014306;28;20029;-71
2021/08/21 09:41:06;;;;;;;4.27;2.67;;;;;;;36.97;28.20;98912.81;5014941;28;20061;-71
2021/08/21 09:43:35;;;;;;;2.50;2.00;;;;;;;36.34;29.44;98911.28;5014534;28;20022;-71
2021/08/21 09:46:20;;;;;;;6.20;2.20;;;;;;;37.02;28.45;98914.47;4990311;28;20089;-72
2021/08/21 09:49:05;;;;;;;2.60;1.95;;;;;;;36.88;28.16;98905.81;5007450;28;20026;-71
2021/08/21 09:51:46;;;;;;;3.85;1.98;;;;;;;37.52;27.70;98904.03;5014732;28;20093;-71
2021/08/21 09:54:20;;;;;;;4.43;2.88;;;;;;;38.28;26.86;98906.63;5013931;28;20028;-71
2021/08/21 09:56:53;;;;;;;4.50;2.60;;;;;;;37.71;27.52;98895.41;5004902;28;20065;-71
2021/08/21 09:59:34;;;;;;;4.85;2.35;;;;;;;37.10;27.85;98893.72;5015093;28;20026;-71
2021/08/21 10:02:04;;;;;;;2.40;2.08;;;;;;;37.33;27.99;98895.66;5009691;28;20117;-71
2021/08/21 10:04:30;;;;;;;2.88;2.30;;;;;;;38.90;25.77;98891.91;5014668;28;20022;-71
2021/08/21 10:06:56;;;;;;;4.13;2.00;;;;;;;37.55;27.78;98894.81;5011153;28;20045;-71
2021/08/21 10:09:23;;;;;;;4.78;2.35;;;;;;;38.76;25.80;98897.44;5013916;28;20030;-70
2021/08/21 10:11:52;;;;;;;4.40;2.80;;;;;;;38.39;26.37;98883.34;4996884;28;20109;-71
2021/08/21 10:14:19;;;;;;;3.20;2.47;;;;;;;37.87;26.66;98891.59;5014340;28;20017;-72
2021/08/21 10:16:44;;;;;;;4.30;3.05;;;;;;;38.06;26.06;98887.81;4996501;28;20502;-72
2021/08/21 10:19:10;;;;;;;4.63;2.58;;;;;;;36.62;27.52;98876.34;5014159;28;20116;-71
2021/08/21 10:21:35;;;;;;;3.05;2.22;;;;;;;37.13;28.06;98883.66;5016403;28;20073;-72
2021/08/21 10:24:01;;;;;;;3.88;2.63;;;;;;;36.90;27.98;98878.84;5013689;28;20074;-71
2021/08/21 10:26:40;;;;;;;3.67;2.70;;;;;;;37.29;27.94;98875.84;4995205;28;20061;-70
2021/08/21 10:29:15;;;;;;;5.72;2.78;;;;;;;37.37;26.98;98873.97;5013798;28;20491;-71
2021/08/21 10:31:44;;;;;;;4.13;2.92;;;;;;;36.95;27.67;98880.53;5012861;28;20108;-71
2021/08/21 10:34:12;;;;;;;4.63;3.17;;;;;;;37.62;27.06;98871.50;5010738;28;20030;-71
2021/08/21 10:36:50;;;;;;;6.63;3.70;;;;;;;36.34;27.97;98876.63;5006174;28;20025;-70
2021/08/21 10:39:21;;;;;;;7.43;2.63;;;;;;;36.03;28.78;98869.19;5000052;28;20041;-71
2021/08/21 10:41:50;;;;;;;5.15;3.40;;;;;;;37.05;28.36;98872.28;5007342;28;20037;-70
2021/08/21 10:44:47;;;;;;;5.20;3.10;;;;;;;37.47;27.48;98870.47;4993236;28;20514;-72
2021/08/21 10:47:31;;;;;;;3.20;2.87;;;;;;;35.56;29.12;98871.81;4993765;28;20037;-72
2021/08/21 10:50:01;;;;;;;3.67;2.60;;;;;;;36.55;28.37;98850.84;5010400;28;20380;-72
2021/08/21 10:52:51;;;;;;;3.25;2.65;;;;;;;38.40;26.50;98863.13;5008558;28;20056;-72
2021/08/21 10:55:20;;;;;;;4.80;2.58;;;;;;;38.63;26.03;98862.97;5008869;28;20100;-72
2021/08/21 10:57:55;;;;;;;;;;;;;;;38.08;26.91;98862.81;5011436;28;20028;-72
2021/08/21 11:00:39;;;;;;;3.35;2.50;;;;;;;36.94;26.86;98864.78;5011206;28;19913;-72
2021/08/21 11:03:09;;;;;;;3.78;2.70;;;;;;;37.92;26.03;98855.34;5008961;28;20030;-72
2021/08/21 11:05:55;;;;;;;3.15;2.40;;;;;;;38.93;25.63;98854.34;5010032;28;20030;-72
2021/08/21 11:08:23;;;;;;;3.55;2.60;;;;;;;38.82;25.68;98839.28;5011310;28;20125;-72
2021/08/21 11:11:13;;;;;;;7.63;4.20;;;;;;;39.07;25.16;98858.53;5011347;28;20061;-71
2021/08/21 11:13:49;;;;;;;4.95;2.90;;;;;;;37.97;26.69;98851.41;5010301;28;20025;-72
2021/08/21 11:16:15;;;;;;;3.75;2.60;;;;;;;38.43;25.99;98842.59;4997453;28;20435;-72
2021/08/21 11:18:48;;;;;;;4.43;3.38;;;;;;;38.16;26.02;98841.91;5007250;28;20057;-72
2021/08/21 11:21:34;;;;;;;4.15;2.83;;;;;;;38.32;26.03;98838.84;5009634;28;20454;-73
2021/08/21 11:23:59;;;;;;;4.32;2.78;;;;;;;38.95;25.08;98820.84;5004367;28;20551;-73
2021/08/21 11:26:25;;;;;;;5.32;2.90;;;;;;;38.33;26.15;98812.19;4993221;28;20030;-72
2021/08/21 11:29:09;;;;;;;7.22;2.90;;;;;;;38.13;26.33;98839.88;5003248;28;20111;-72
2021/08/21 11:31:55;;;;;;;3.95;2.72;;;;;;;38.32;26.40;98836.00;5010282;28;20037;-72
2021/08/21 11:34:21;;;;;;;3.28;2.80;;;;;;;39.06;25.25;98832.22;5011582;28;20048;-72